FW0664 Weather Reports


Display with metric or nautical units.
time (UTC)temp
F
wind
direction
speed
MPH
gust
MPH
rain 1hr
in
rain 24hr
in
rain mn
in
humidity
%
barometer
mb
20181015205404 40 75 10.0 20.0 0.00 0.00 0.00 19 1034.3
20181015204903 40 91 13.0 26.0 0.00 0.00 0.00 18 1034.3
20181015204404 40 108 7.0 16.0 0.00 0.00 0.00 19 1034.3
20181015203903 40 14 12.0 22.0 0.00 0.00 0.00 17 1034.3
20181015203404 40 37 6.0 15.0 0.00 0.00 0.00 19 1034.3
20181015202903 40 67 13.0 24.0 0.00 0.00 0.00 19 1034.3
20181015202404 39 110 9.0 22.0 0.00 0.00 0.00 21 1035.0
20181015201904 39 92 9.0 20.0 0.00 0.00 0.00 21 1035.0
20181015201404 39 71 12.0 20.0 0.00 0.00 0.00 19 1035.0
20181015200904 39 95 10.0 21.0 0.00 0.00 0.00 21 1034.4
20181015200403 39 91 10.0 20.0 0.00 0.00 0.00 22 1034.4
20181015195903 39 95 13.0 21.0 0.00 0.00 0.00 22 1034.4
20181015195403 39 93 6.0 15.0 0.00 0.00 0.00 22 1034.9
20181015194903 39 98 11.0 22.0 0.00 0.00 0.00 21 1034.9
20181015194404 39 96 6.0 18.0 0.00 0.00 0.00 21 1034.9
20181015193903 39 97 10.0 18.0 0.00 0.00 0.00 22 1035.1
20181015193403 39 87 8.0 18.0 0.00 0.00 0.00 22 1035.1
20181015192903 39 105 6.0 14.0 0.00 0.00 0.00 21 1035.1
20181015192403 39 61 6.0 12.0 0.00 0.00 0.00 22 1035.1
20181015191903 39 55 7.0 18.0 0.00 0.00 0.00 22 1035.1
20181015191403 39 92 9.0 18.0 0.00 0.00 0.00 22 1035.1
20181015190903 39 98 6.0 13.0 0.00 0.00 0.00 24 1035.6
20181015190404 38 82 9.0 17.0 0.00 0.00 0.00 23 1035.6
20181015185903 38 81 9.0 16.0 0.00 0.00 0.00 23 1035.6
20181015185403 38 69 11.0 18.0 0.00 0.00 0.00 24 1035.6
20181015184904 38 81 8.0 18.0 0.00 0.00 0.00 25 1035.6
20181015184404 38 99 7.0 16.0 0.00 0.00 0.00 26 1035.6
20181015183903 38 73 9.0 17.0 0.00 0.00 0.00 25 1036.1
20181015183404 38 95 9.0 20.0 0.00 0.00 0.00 25 1036.1
20181015182904 37 88 9.0 24.0 0.00 0.00 0.00 26 1036.1
20181015182404 37 78 10.0 17.0 0.00 0.00 0.00 26 1036.0
20181015181904 37 83 10.0 18.0 0.00 0.00 0.00 26 1036.0
20181015181404 37 97 10.0 21.0 0.00 0.00 0.00 26 1036.0
20181015180903 37 89 12.0 20.0 0.00 0.00 0.00 27 1035.5
20181015180403 37 86 9.0 23.0 0.00 0.00 0.00 28 1035.5
20181015175904 37 76 10.0 20.0 0.00 0.00 0.00 27 1035.5
20181015175403 37 75 7.0 16.0 0.00 0.00 0.00 27 1035.5
20181015174904 37 90 8.0 17.0 0.00 0.00 0.00 28 1035.5
20181015174403 37 104 10.0 20.0 0.00 0.00 0.00 27 1035.5
20181015173904 36 66 9.0 20.0 0.00 0.00 0.00 28 1036.0
20181015173404 37 101 12.0 23.0 0.00 0.00 0.00 27 1036.0
20181015172904 36 51 6.0 17.0 0.00 0.00 0.00 28 1036.0
20181015172403 36 104 13.0 20.0 0.00 0.00 0.00 28 1036.0
20181015171903 36 105 7.0 20.0 0.00 0.00 0.00 27 1036.0
20181015171403 36 55 5.0 13.0 0.00 0.00 0.00 28 1036.0
20181015170903 36 97 9.0 16.0 0.00 0.00 0.00 28 1035.6
20181015170403 35 60 6.0 14.0 0.00 0.00 0.00 28 1035.6
20181015165903 36 89 9.0 18.0 0.00 0.00 0.00 26 1035.6
20181015165403 35 83 7.0 16.0 0.00 0.00 0.00 26 1035.6
20181015164903 35 71 5.0 17.0 0.00 0.00 0.00 26 1035.6
20181015164403 35 98 12.0 20.0 0.00 0.00 0.00 24 1035.6
20181015163903 36 96 8.0 15.0 0.00 0.00 0.00 24 1035.6
20181015163403 35 95 6.0 16.0 0.00 0.00 0.00 23 1035.6
20181015162904 36 87 6.0 20.0 0.00 0.00 0.00 23 1035.6
20181015162403 36 81 6.0 15.0 0.00 0.00 0.00 22 1036.1
20181015161903 35 91 9.0 14.0 0.00 0.00 0.00 23 1036.1
20181015161403 35 100 3.0 13.0 0.00 0.00 0.00 24 1036.1
20181015160903 35 101 7.0 13.0 0.00 0.00 0.00 23 1036.7
20181015160403 34 81 7.0 16.0 0.00 0.00 0.00 25 1036.7
20181015155903 34 67 6.0 13.0 0.00 0.00 0.00 25 1036.7
20181015155403 34 74 8.0 13.0 0.00 0.00 0.00 25 1036.6
20181015154903 34 99 6.0 13.0 0.00 0.00 0.00 26 1036.6
20181015154403 33 59 9.0 14.0 0.00 0.00 0.00 26 1036.6
20181015153903 33 88 8.0 15.0 0.00 0.00 0.00 25 1036.6
20181015153403 33 69 8.0 12.0 0.00 0.00 0.00 25 1036.6
20181015152903 33 95 7.0 15.0 0.00 0.00 0.00 25 1036.6
20181015152403 33 84 7.0 15.0 0.00 0.00 0.00 26 1036.3
20181015151903 33 83 9.0 17.0 0.00 0.00 0.00 26 1036.3
20181015151403 33 80 8.0 17.0 0.00 0.00 0.00 27 1036.3
20181015150903 32 87 6.0 15.0 0.00 0.00 0.00 28 1035.5
20181015150403 32 82 10.0 15.0 0.00 0.00 0.00 27 1035.5
20181015145903 32 47 7.0 16.0 0.00 0.00 0.00 27 1035.5
20181015145404 32 66 3.0 12.0 0.00 0.00 0.00 27 1035.3
20181015144904 32 71 10.0 16.0 0.00 0.00 0.00 26 1035.3
20181015144404 32 80 10.0 15.0 0.00 0.00 0.00 26 1035.3
20181015143903 32 94 3.0 12.0 0.00 0.00 0.00 26 1036.0
20181015143404 31 97 5.0 12.0 0.00 0.00 0.00 27 1036.0
20181015142903 31 78 6.0 12.0 0.00 0.00 0.00 27 1036.0
20181015142403 31 91 6.0 12.0 0.00 0.00 0.00 28 1036.0
20181015141904 31 70 3.0 10.0 0.00 0.00 0.00 28 1036.0
20181015141403 31 98 6.0 13.0 0.00 0.00 0.00 28 1036.0
20181015140903 31 98 5.0 14.0 0.00 0.00 0.00 28 1036.0
20181015140404 31 67 6.0 12.0 0.00 0.00 0.00 28 1036.0
20181015135904 31 59 1.0 9.0 0.00 0.00 0.00 30 1036.0
20181015135403 31 95 1.0 6.0 0.00 0.00 0.00 28 1035.4
20181015134903 31 71 2.0 10.0 0.00 0.01 0.00 28 1035.4
20181015134404 31 97 5.0 12.0 0.00 0.01 0.00 27 1035.4
20181015133903 32 73 3.0 6.0 0.00 0.01 0.00 29 1035.5
20181015133404 32 97 3.0 10.0 0.00 0.01 0.00 28 1035.5
20181015132903 32 67 3.0 7.0 0.00 0.01 0.00 28 1035.5
20181015132404 33 63 5.0 12.0 0.00 0.01 0.00 27 1035.7
20181015131903 33 44 1.0 6.0 0.00 0.01 0.00 28 1035.7
20181015131404 33 24 2.0 7.0 0.00 0.01 0.00 27 1035.7
20181015130904 33 51 3.0 6.0 0.00 0.01 0.00 27 1034.6
20181015130403 33 77 6.0 12.0 0.00 0.01 0.00 26 1034.6
20181015125903 33 73 3.0 10.0 0.00 0.01 0.00 27 1034.6
20181015125405 33 102 1.0 12.0 0.00 0.01 0.00 27 1034.6
20181015124905 33 75 5.0 13.0 0.00 0.01 0.00 27 1034.6
20181015124405 34 58 3.0 7.0 0.00 0.01 0.00 27 1034.6
20181015123905 34 74 2.0 16.0 0.00 0.01 0.00 27 1034.9
20181015123405 34 69 6.0 14.0 0.00 0.01 0.00 27 1034.9
20181015122905 34 27 5.0 13.0 0.00 0.01 0.00 28 1034.9
20181015122405 34 29 3.0 12.0 0.00 0.01 0.00 27 1034.9
20181015121905 34 33 6.0 16.0 0.00 0.01 0.00 28 1034.9
20181015121405 34 67 0.0 3.0 0.00 0.01 0.00 28 1034.9
20181015120905 34 66 2.0 3.0 0.00 0.01 0.00 29 1033.5
20181015120405 34 44 0.0 6.0 0.00 0.01 0.00 28 1033.5
20181015115904 34 64 4.0 10.0 0.00 0.01 0.00 28 1033.5
20181015115405 34 59 2.0 6.0 0.00 0.01 0.00 28 1033.4
20181015114905 34 32 2.0 7.0 0.00 0.01 0.00 27 1033.4
20181015114405 34 29 3.0 7.0 0.00 0.01 0.00 28 1033.4
20181015113905 34 79 2.0 12.0 0.00 0.01 0.00 28 1033.5
20181015113405 34 66 2.0 10.0 0.00 0.01 0.00 31 1033.5
20181015112905 34 71 1.0 6.0 0.00 0.01 0.00 34 1033.5
20181015112404 34 93 0.0 5.0 0.00 0.01 0.00 34 1033.3
20181015111905 34 75 1.0 5.0 0.00 0.01 0.00 34 1033.3
20181015111404 34 72 0.0 0.0 0.00 0.01 0.00 37 1033.3
20181015110905 34 72 0.0 0.0 0.00 0.01 0.00 38 1032.9
20181015110405 34 72 0.0 0.0 0.00 0.01 0.00 38 1032.9
20181015105905 34 72 0.0 2.0 0.00 0.01 0.00 37 1032.9
20181015105404 34 72 1.0 3.0 0.00 0.01 0.00 38 1032.9
20181015104905 34 72 0.0 0.0 0.00 0.01 0.00 38 1032.9
20181015104405 34 72 0.0 2.0 0.00 0.01 0.00 38 1032.9
20181015103904 34 72 0.0 0.0 0.00 0.01 0.00 38 1033.0
20181015103405 35 72 0.0 3.0 0.00 0.01 0.00 36 1033.0
20181015102905 35 72 0.0 0.0 0.00 0.01 0.00 37 1033.0
20181015102404 35 72 0.0 0.0 0.00 0.01 0.00 37 1033.1
20181015101905 35 72 0.0 0.0 0.00 0.01 0.00 37 1033.1
20181015101404 35 72 0.0 0.0 0.00 0.01 0.00 36 1033.1
20181015100905 35 72 0.0 0.0 0.00 0.01 0.00 37 1032.2
20181015100405 35 72 0.0 0.0 0.00 0.01 0.00 36 1032.2
20181015095905 35 72 0.0 1.0 0.00 0.01 0.00 35 1032.2
20181015095405 36 72 0.0 3.0 0.00 0.01 0.00 34 1032.4
20181015094904 36 72 0.0 0.0 0.00 0.01 0.00 34 1032.4
20181015094405 36 72 0.0 0.0 0.00 0.01 0.00 33 1032.4
20181015093905 37 72 0.0 0.0 0.00 0.01 0.00 32 1031.9
20181015093404 37 72 0.0 0.0 0.00 0.01 0.00 28 1031.9
20181015092905 38 72 0.0 6.0 0.00 0.01 0.00 28 1031.9
20181015092404 38 63 1.0 6.0 0.00 0.01 0.00 27 1031.9
20181015091404 37 68 3.0 9.0 0.00 0.01 0.00 28 1031.9
20181015090904 37 96 1.0 3.0 0.00 0.01 0.00 28 1032.1
20181015090404 38 113 1.0 5.0 0.00 0.01 0.00 28 1032.1
20181015085904 38 115 1.0 6.0 0.00 0.01 0.00 27 1032.1
20181015085404 38 103 2.0 6.0 0.00 0.01 0.00 28 1031.9
20181015084904 38 98 1.0 3.0 0.00 0.01 0.00 28 1031.9
20181015084405 38 98 0.0 3.0 0.00 0.01 0.00 28 1031.9
20181015083906 38 92 1.0 6.0 0.00 0.01 0.00 27 1032.4
20181015083405 37 80 0.0 6.0 0.00 0.01 0.00 28 1032.4
20181015082904 37 77 0.0 3.0 0.00 0.01 0.00 28 1032.4
20181015082404 37 77 0.0 0.0 0.00 0.01 0.00 28 1031.8
20181015081904 38 77 0.0 0.0 0.00 0.01 0.00 27 1031.8
20181015081404 38 77 0.0 0.0 0.00 0.01 0.00 27 1031.8
20181015080904 38 77 0.0 3.0 0.00 0.01 0.00 27 1031.8
20181015080404 38 77 0.0 2.0 0.00 0.01 0.00 26 1031.8
20181015075904 39 77 0.0 1.0 0.00 0.01 0.00 26 1031.8
20181015075404 39 77 0.0 3.0 0.00 0.01 0.00 25 1031.8
20181015074904 39 77 1.0 5.0 0.00 0.01 0.00 26 1031.8
20181015074404 38 77 1.0 3.0 0.00 0.01 0.00 25 1031.8
20181015073904 38 77 0.0 0.0 0.00 0.01 0.00 27 1031.8
20181015073404 39 77 0.0 0.0 0.00 0.01 0.00 27 1031.8
20181015072903 39 77 0.0 0.0 0.00 0.01 0.00 25 1031.8
20181015072404 39 77 0.0 0.0 0.00 0.01 0.00 25 1031.2
20181015071904 39 77 0.0 0.0 0.00 0.01 0.00 24 1031.2
20181015071404 40 77 0.0 3.0 0.00 0.01 0.00 23 1031.2
20181015070904 40 77 2.0 5.0 0.00 0.01 0.00 23 1031.2
20181015070404 40 76 1.0 5.0 0.00 0.01 0.00 25 1031.2
20181015065904 40 76 1.0 3.0 0.00 0.01 0.01 24 1031.2
20181015065403 40 75 0.0 0.0 0.00 0.01 0.01 26 1031.0
20181015064904 40 75 0.0 5.0 0.00 0.01 0.01 23 1031.0
20181015064404 41 74 1.0 6.0 0.00 0.01 0.01 24 1031.0
20181015063903 41 71 1.0 5.0 0.00 0.01 0.01 24 1031.0
20181015063403 41 70 3.0 8.0 0.00 0.01 0.01 23 1031.0
20181015062903 41 92 4.0 12.0 0.00 0.01 0.01 24 1031.0
20181015062404 41 104 2.0 5.0 0.00 0.01 0.01 23 1031.1
20181015061903 41 111 0.0 5.0 0.00 0.01 0.01 23 1031.1
20181015061403 41 110 2.0 6.0 0.00 0.01 0.01 22 1031.1
20181015060904 41 113 0.0 8.0 0.00 0.01 0.01 23 1031.0
20181015060404 41 95 2.0 6.0 0.00 0.01 0.01 24 1031.0
20181015055903 41 108 1.0 3.0 0.00 0.01 0.01 24 1031.0
20181015055403 41 109 1.0 3.0 0.00 0.01 0.01 24 1031.0
20181015054903 41 110 1.0 5.0 0.00 0.01 0.01 25 1031.0
20181015054404 41 101 1.0 5.0 0.00 0.01 0.01 23 1031.0
20181015053903 42 96 2.0 7.0 0.00 0.01 0.01 24 1030.6
20181015053403 42 94 1.0 7.0 0.00 0.01 0.01 24 1030.6
20181015052904 42 109 4.0 9.0 0.00 0.01 0.01 25 1030.6
20181015052403 42 100 2.0 6.0 0.00 0.01 0.01 26 1030.6
20181015051903 42 111 2.0 9.0 0.00 0.01 0.01 27 1030.6
20181015051403 42 103 1.0 5.0 0.00 0.01 0.01 28 1030.6
20181015050903 42 103 0.0 5.0 0.00 0.01 0.01 27 1029.9
20181015050403 42 103 1.0 6.0 0.00 0.01 0.01 28 1029.9
20181015045903 42 112 2.0 12.0 0.00 0.01 0.01 29 1029.9
20181015045403 42 105 0.0 3.0 0.00 0.01 0.01 31 1029.6
20181015044904 42 105 0.0 3.0 0.00 0.01 0.01 32 1029.6
20181015044403 42 107 0.0 3.0 0.00 0.01 0.01 34 1029.6
20181015043903 42 108 2.0 6.0 0.00 0.01 0.01 35 1029.6
20181015043404 42 108 1.0 5.0 0.00 0.01 0.01 37 1029.6
20181015042903 42 94 3.0 6.0 0.00 0.01 0.01 39 1029.6
20181015042403 42 108 2.0 3.0 0.00 0.01 0.01 42 1029.3
20181015041903 42 123 0.0 3.0 0.00 0.01 0.01 43 1029.3
20181015041403 42 126 1.0 3.0 0.00 0.01 0.01 45 1029.3
20181015040904 42 121 2.0 6.0 0.00 0.01 0.01 48 1030.0
20181015040403 42 102 3.0 6.0 0.00 0.01 0.01 50 1030.0
20181015035904 41 103 2.0 5.0 0.00 0.01 0.01 54 1030.0
20181015035403 41 103 0.0 3.0 0.00 0.01 0.01 60 1029.4
20181015034903 42 103 0.0 0.0 0.00 0.01 0.01 58 1029.4
20181015034404 42 103 1.0 3.0 0.00 0.01 0.01 54 1029.4
20181015033903 43 103 0.0 0.0 0.00 0.01 0.01 53 1029.0
20181015033403 43 103 0.0 0.0 0.00 0.01 0.01 51 1029.0
20181015032904 44 103 1.0 3.0 0.00 0.01 0.01 49 1029.0
20181015032403 44 103 0.0 3.0 0.00 0.01 0.01 49 1028.9
20181015031904 44 103 2.0 3.0 0.00 0.01 0.01 49 1028.9
20181015031403 44 103 1.0 3.0 0.00 0.01 0.01 51 1028.9
20181015030904 44 103 0.0 0.0 0.00 0.01 0.01 51 1029.9
20181015030403 44 103 1.0 3.0 0.00 0.01 0.01 51 1029.9
20181015025904 44 103 1.0 3.0 0.00 0.01 0.01 52 1029.9
20181015025403 44 103 0.0 0.0 0.00 0.01 0.01 53 1030.2
20181015024904 43 103 0.0 0.0 0.00 0.01 0.01 54 1030.2
20181015024404 43 103 0.0 2.0 0.00 0.01 0.01 55 1030.2
20181015023904 43 103 0.0 0.0 0.00 0.01 0.01 57 1029.4
20181015023405 43 103 0.0 0.0 0.00 0.01 0.01 57 1029.4
20181015022904 43 103 0.0 0.0 0.00 0.01 0.01 58 1029.4
20181015022403 44 103 0.0 0.0 0.00 0.01 0.01 57 1029.2
20181015021904 44 103 0.0 0.0 0.00 0.01 0.01 56 1029.2
20181015021404 44 103 0.0 0.0 0.00 0.01 0.01 56 1029.2
20181015020903 44 103 0.0 0.0 0.00 0.01 0.01 55 1030.5
20181015020404 44 103 0.0 0.0 0.00 0.01 0.01 56 1030.5
20181015015904 44 103 0.0 0.0 0.00 0.01 0.01 56 1030.5
20181015015404 44 103 0.0 0.0 0.00 0.01 0.01 56 1030.4
20181015014904 44 103 0.0 0.0 0.00 0.01 0.01 56 1030.4
20181015013903 45 103 0.0 0.0 0.00 0.01 0.01 56 1030.0
20181015013404 45 103 0.0 0.0 0.00 0.01 0.01 55 1030.0
20181015012903 45 103 0.0 0.0 0.00 0.01 0.01 54 1030.0
20181015012403 46 103 0.0 0.0 0.00 0.01 0.01 53 1029.5
20181015011903 46 103 0.0 0.0 0.00 0.01 0.01 52 1029.5
20181015011403 46 103 2.0 6.0 0.00 0.01 0.01 50 1029.5
20181015010902 47 103 0.0 7.0 0.00 0.01 0.01 50 1029.3
20181015010403 47 102 0.0 7.0 0.00 0.01 0.01 49 1029.3
20181015005903 47 103 1.0 7.0 0.00 0.01 0.01 49 1029.3
20181015005403 48 85 3.0 10.0 0.00 0.01 0.01 47 1028.8
20181015004902 48 66 4.0 8.0 0.00 0.01 0.01 47 1028.8
20181015004403 49 84 1.0 5.0 0.00 0.01 0.01 47 1028.8
20181015003903 49 84 0.0 6.0 0.00 0.01 0.01 47 1028.8
20181015003403 49 109 3.0 7.0 0.00 0.01 0.01 46 1028.8
20181015002903 49 94 2.0 9.0 0.00 0.01 0.01 46 1028.8
20181015002403 50 104 2.0 7.0 0.00 0.01 0.01 46 1028.2
20181015001903 50 119 1.0 7.0 0.00 0.01 0.01 46 1028.2
20181015001403 50 62 5.0 12.0 0.00 0.01 0.01 45 1028.2
20181015000903 51 75 2.0 10.0 0.00 0.01 0.01 46 1027.0
20181015000404 51 50 5.0 7.0 0.00 0.01 0.01 46 1027.0
20181014235902 51 46 1.0 6.0 0.00 0.01 0.01 46 1027.0
20181014235403 52 80 2.0 9.0 0.00 0.01 0.01 45 1027.0
20181014234903 52 86 2.0 8.0 0.00 0.01 0.01 45 1027.0
20181014234403 52 85 2.0 7.0 0.00 0.01 0.01 45 1027.0
20181014233903 52 73 5.0 7.0 0.00 0.01 0.01 44 1026.4
20181014233404 53 86 2.0 6.0 0.00 0.01 0.01 42 1026.4
20181014232903 53 72 2.0 6.0 0.00 0.01 0.01 42 1026.4
20181014232403 53 63 1.0 6.0 0.00 0.01 0.01 42 1026.4
20181014231904 53 95 2.0 9.0 0.00 0.01 0.01 41 1026.4
20181014231403 53 82 2.0 6.0 0.00 0.01 0.01 41 1026.4
20181014230903 53 80 0.0 5.0 0.00 0.01 0.01 42 1027.6
20181014230403 53 79 1.0 6.0 0.00 0.01 0.01 41 1027.6
20181014225903 52 74 3.0 7.0 0.00 0.01 0.01 41 1027.6
20181014225403 53 66 5.0 9.0 0.00 0.01 0.01 40 1027.4
20181014224903 53 79 3.0 8.0 0.00 0.01 0.01 41 1027.4
20181014224404 53 66 6.0 9.0 0.00 0.01 0.01 40 1027.4
20181014223903 53 56 5.0 10.0 0.00 0.01 0.01 39 1027.1
20181014223404 53 74 5.0 10.0 0.00 0.01 0.01 38 1027.1
20181014222903 53 94 1.0 9.0 0.00 0.01 0.01 42 1027.1
20181014222403 53 42 3.0 10.0 0.00 0.01 0.01 40 1027.1
20181014221903 53 38 7.0 12.0 0.00 0.01 0.01 39 1027.1
20181014221403 53 59 7.0 12.0 0.00 0.01 0.01 39 1027.1
20181014220903 54 89 3.0 12.0 0.00 0.01 0.01 38 1026.7
20181014220404 55 58 1.0 7.0 0.00 0.01 0.01 38 1026.7
20181014215904 54 93 1.0 10.0 0.00 0.01 0.01 38 1026.7
20181014215403 54 100 2.0 8.0 0.00 0.01 0.01 40 1026.8
20181014214903 54 44 2.0 9.0 0.00 0.01 0.01 39 1026.8
20181014214403 54 85 1.0 5.0 0.00 0.01 0.01 40 1026.8
20181014213903 54 101 2.0 6.0 0.00 0.01 0.01 41 1026.8
20181014213404 54 60 3.0 7.0 0.00 0.01 0.01 40 1026.8
20181014212903 53 69 1.0 5.0 0.00 0.01 0.01 42 1026.8
20181014212404 53 97 6.0 12.0 0.00 0.01 0.01 43 1026.7
20181014211903 53 48 2.0 6.0 0.00 0.01 0.01 42 1026.7
20181014211403 53 70 1.0 6.0 0.00 0.01 0.01 41 1026.7
20181014210903 52 26 5.0 10.0 0.00 0.01 0.01 42 1027.0
20181014210403 52 26 3.0 12.0 0.00 0.01 0.01 42 1027.0
20181014205903 52 43 4.0 9.0 0.00 0.01 0.01 42 1027.0